sensor_id;sensor_type;location;lat;lon;timestamp;pressure;altitude;pressure_sealevel;temperature;humidity
71976;BME280;60680;52.182;5.398;2023-02-19T00:01:11;101734.97;;;9.67;100.00
71976;BME280;60680;52.182;5.398;2023-02-19T00:03:39;101736.69;;;9.67;100.00
71976;BME280;60680;52.182;5.398;2023-02-19T00:06:08;101737.63;;;9.66;100.00
71976;BME280;60680;52.182;5.398;2023-02-19T00:08:36;101742.84;;;9.64;100.00
71976;BME280;60680;52.182;5.398;2023-02-19T00:11:06;101739.44;;;9.62;100.00
71976;BME280;60680;52.182;5.398;2023-02-19T00:13:41;101743.69;;;9.65;100.00
71976;BME280;60680;52.182;5.398;2023-02-19T00:16:19;101736.00;;;9.62;100.00
71976;BME280;60680;52.182;5.398;2023-02-19T00:18:47;101743.84;;;9.60;100.00
71976;BME280;60680;52.182;5.398;2023-02-19T00:21:15;101746.44;;;9.60;100.00
71976;BME280;60680;52.182;5.398;2023-02-19T00:23:42;101748.19;;;9.59;100.00
71976;BME280;60680;52.182;5.398;2023-02-19T00:26:11;101751.66;;;9.60;100.00
71976;BME280;60680;52.182;5.398;2023-02-19T00:28:44;101743.91;;;9.58;100.00
71976;BME280;60680;52.182;5.398;2023-02-19T00:31:20;101747.41;;;9.57;100.00
71976;BME280;60680;52.182;5.398;2023-02-19T00:33:49;101759.56;;;9.57;100.00
71976;BME280;60680;52.182;5.398;2023-02-19T00:36:16;101750.03;;;9.56;100.00
71976;BME280;60680;52.182;5.398;2023-02-19T00:38:43;101751.78;;;9.55;100.00
71976;BME280;60680;52.182;5.398;2023-02-19T00:41:11;101748.34;;;9.55;100.00
71976;BME280;60680;52.182;5.398;2023-02-19T00:43:54;101758.75;;;9.55;100.00
71976;BME280;60680;52.182;5.398;2023-02-19T00:46:25;101757.94;;;9.53;100.00
71976;BME280;60680;52.182;5.398;2023-02-19T00:48:52;101757.09;;;9.52;100.00
71976;BME280;60680;52.182;5.398;2023-02-19T00:51:21;101753.59;;;9.53;100.00
71976;BME280;60680;52.182;5.398;2023-02-19T00:53:48;101759.69;;;9.52;100.00
71976;BME280;60680;52.182;5.398;2023-02-19T00:56:15;101756.22;;;9.52;100.00
71976;BME280;60680;52.182;5.398;2023-02-19T00:58:42;101753.63;;;9.52;100.00
71976;BME280;60680;52.182;5.398;2023-02-19T01:01:10;101751.00;;;9.53;100.00
71976;BME280;60680;52.182;5.398;2023-02-19T01:03:38;101758.78;;;9.53;100.00
71976;BME280;60680;52.182;5.398;2023-02-19T01:06:06;101763.97;;;9.53;100.00
71976;BME280;60680;52.182;5.398;2023-02-19T01:08:33;101771.81;;;9.52;100.00
71976;BME280;60680;52.182;5.398;2023-02-19T01:11:01;101773.56;;;9.51;100.00
71976;BME280;60680;52.182;5.398;2023-02-19T01:13:28;101770.97;;;9.51;100.00
71976;BME280;60680;52.182;5.398;2023-02-19T01:16:13;101770.94;;;9.53;100.00
71976;BME280;60680;52.182;5.398;2023-02-19T01:18:40;101776.22;;;9.50;100.00
71976;BME280;60680;52.182;5.398;2023-02-19T01:21:11;101776.22;;;9.50;100.00
71976;BME280;60680;52.182;5.398;2023-02-19T01:23:38;101777.97;;;9.49;100.00
71976;BME280;60680;52.182;5.398;2023-02-19T01:26:08;101783.16;;;9.49;100.00
71976;BME280;60680;52.182;5.398;2023-02-19T01:28:34;101782.31;;;9.49;100.00
71976;BME280;60680;52.182;5.398;2023-02-19T01:31:02;101784.06;;;9.48;100.00
71976;BME280;60680;52.182;5.398;2023-02-19T01:35:59;101779.88;;;9.44;100.00
71976;BME280;60680;52.182;5.398;2023-02-19T01:38:28;101778.13;;;9.45;100.00
71976;BME280;60680;52.182;5.398;2023-02-19T01:40:58;101783.31;;;9.45;100.00
71976;BME280;60680;52.182;5.398;2023-02-19T01:43:26;101791.13;;;9.43;100.00
71976;BME280;60680;52.182;5.398;2023-02-19T01:45:53;101785.13;;;9.41;100.00
71976;BME280;60680;52.182;5.398;2023-02-19T01:48:33;101792.06;;;9.42;100.00
71976;BME280;60680;52.182;5.398;2023-02-19T01:51:08;101787.72;;;9.41;100.00
71976;BME280;60680;52.182;5.398;2023-02-19T01:53:39;101790.41;;;9.39;100.00
71976;BME280;60680;52.182;5.398;2023-02-19T01:56:07;101793.91;;;9.37;100.00
71976;BME280;60680;52.182;5.398;2023-02-19T01:58:35;101787.88;;;9.36;100.00
71976;BME280;60680;52.182;5.398;2023-02-19T02:01:05;101793.13;;;9.35;100.00
71976;BME280;60680;52.182;5.398;2023-02-19T02:03:36;101784.53;;;9.33;100.00
71976;BME280;60680;52.182;5.398;2023-02-19T02:08:42;101793.22;;;9.32;100.00
71976;BME280;60680;52.182;5.398;2023-02-19T02:11:28;101799.31;;;9.31;100.00
71976;BME280;60680;52.182;5.398;2023-02-19T02:13:55;101797.56;;;9.31;100.00
71976;BME280;60680;52.182;5.398;2023-02-19T02:21:48;101794.13;;;9.31;100.00
71976;BME280;60680;52.182;5.398;2023-02-19T02:24:35;101796.75;;;9.29;100.00
71976;BME280;60680;52.182;5.398;2023-02-19T02:27:52;101789.81;;;9.30;100.00
71976;BME280;60680;52.182;5.398;2023-02-19T02:33:12;101798.59;;;9.26;100.00
71976;BME280;60680;52.182;5.398;2023-02-19T02:35:54;101797.78;;;9.24;100.00
71976;BME280;60680;52.182;5.398;2023-02-19T02:38:28;101802.97;;;9.24;100.00
71976;BME280;60680;52.182;5.398;2023-02-19T02:40:57;101796.94;;;9.23;100.00
71976;BME280;60680;52.182;5.398;2023-02-19T02:43:24;101799.56;;;9.22;100.00
71976;BME280;60680;52.182;5.398;2023-02-19T02:45:51;101808.28;;;9.21;100.00
71976;BME280;60680;52.182;5.398;2023-02-19T02:53:36;101812.66;;;9.18;100.00
71976;BME280;60680;52.182;5.398;2023-02-19T02:56:24;101815.25;;;9.18;100.00
71976;BME280;60680;52.182;5.398;2023-02-19T02:58:52;101810.94;;;9.17;100.00
71976;BME280;60680;52.182;5.398;2023-02-19T03:01:27;101813.50;;;9.19;100.00
71976;BME280;60680;52.182;5.398;2023-02-19T03:07:05;101820.50;;;9.17;100.00
71976;BME280;60680;52.182;5.398;2023-02-19T03:09:41;101821.34;;;9.17;100.00
71976;BME280;60680;52.182;5.398;2023-02-19T03:12:13;101813.53;;;9.17;100.00
71976;BME280;60680;52.182;5.398;2023-02-19T03:15:03;101829.09;;;9.19;100.00
71976;BME280;60680;52.182;5.398;2023-02-19T03:17:53;101828.25;;;9.18;100.00
71976;BME280;60680;52.182;5.398;2023-02-19T03:20:45;101830.84;;;9.18;100.00
71976;BME280;60680;52.182;5.398;2023-02-19T03:23:14;101825.66;;;9.18;100.00
71976;BME280;60680;52.182;5.398;2023-02-19T03:25:43;101833.44;;;9.18;100.00
71976;BME280;60680;52.182;5.398;2023-02-19T03:28:32;101830.84;;;9.18;100.00
71976;BME280;60680;52.182;5.398;2023-02-19T03:31:21;101830.88;;;9.17;100.00
71976;BME280;60680;52.182;5.398;2023-02-19T03:33:55;101837.81;;;9.16;100.00
71976;BME280;60680;52.182;5.398;2023-02-19T03:36:23;101843.03;;;9.16;100.00
71976;BME280;60680;52.182;5.398;2023-02-19T03:39:04;101843.91;;;9.15;100.00
71976;BME280;60680;52.182;5.398;2023-02-19T03:44:33;101842.97;;;9.18;100.00
71976;BME280;60680;52.182;5.398;2023-02-19T03:52:13;101854.28;;;9.15;100.00
71976;BME280;60680;52.182;5.398;2023-02-19T04:00:06;101864.78;;;9.12;100.00
71976;BME280;60680;52.182;5.398;2023-02-19T04:02:40;101868.25;;;9.11;100.00
71976;BME280;60680;52.182;5.398;2023-02-19T04:05:16;101871.72;;;9.12;100.00
71976;BME280;60680;52.182;5.398;2023-02-19T04:07:48;101869.16;;;9.10;100.00
71976;BME280;60680;52.182;5.398;2023-02-19T04:10:16;101875.22;;;9.09;100.00
71976;BME280;60680;52.182;5.398;2023-02-19T04:12:48;101880.47;;;9.08;100.00
71976;BME280;60680;52.182;5.398;2023-02-19T04:15:21;101887.41;;;9.07;100.00
71976;BME280;60680;52.182;5.398;2023-02-19T04:17:56;101881.34;;;9.07;100.00
71976;BME280;60680;52.182;5.398;2023-02-19T04:20:26;101890.94;;;9.05;100.00
71976;BME280;60680;52.182;5.398;2023-02-19T04:22:55;101897.06;;;9.02;100.00
71976;BME280;60680;52.182;5.398;2023-02-19T04:25:25;101898.00;;;9.00;100.00
71976;BME280;60680;52.182;5.398;2023-02-19T04:27:52;101898.84;;;9.00;100.00
71976;BME280;60680;52.182;5.398;2023-02-19T04:30:20;101904.06;;;8.98;100.00
71976;BME280;60680;52.182;5.398;2023-02-19T04:32:47;101910.22;;;8.96;100.00
71976;BME280;60680;52.182;5.398;2023-02-19T04:35:13;101913.75;;;8.93;100.00
71976;BME280;60680;52.182;5.398;2023-02-19T04:37:40;101912.91;;;8.93;100.00
71976;BME280;60680;52.182;5.398;2023-02-19T04:40:07;101921.56;;;8.92;100.00
71976;BME280;60680;52.182;5.398;2023-02-19T04:42:34;101925.00;;;8.92;100.00
71976;BME280;60680;52.182;5.398;2023-02-19T04:45:00;101924.16;;;8.92;100.00
71976;BME280;60680;52.182;5.398;2023-02-19T04:47:27;101937.97;;;8.92;100.00
71976;BME280;60680;52.182;5.398;2023-02-19T04:49:53;101937.09;;;8.93;100.00
71976;BME280;60680;52.182;5.398;2023-02-19T04:52:20;101941.44;;;8.93;100.00
71976;BME280;60680;52.182;5.398;2023-02-19T04:54:47;101944.06;;;8.91;100.00
71976;BME280;60680;52.182;5.398;2023-02-19T04:57:14;101952.75;;;8.90;100.00
71976;BME280;60680;52.182;5.398;2023-02-19T04:59:40;101960.53;;;8.90;100.00
71976;BME280;60680;52.182;5.398;2023-02-19T05:02:07;101960.59;;;8.89;100.00
71976;BME280;60680;52.182;5.398;2023-02-19T05:04:33;101957.16;;;8.88;100.00
71976;BME280;60680;52.182;5.398;2023-02-19T05:07:00;101958.03;;;8.87;100.00
71976;BME280;60680;52.182;5.398;2023-02-19T05:09:27;101958.03;;;8.87;100.00
71976;BME280;60680;52.182;5.398;2023-02-19T05:11:53;101961.47;;;8.88;100.00
71976;BME280;60680;52.182;5.398;2023-02-19T05:14:20;101974.44;;;8.88;100.00
71976;BME280;60680;52.182;5.398;2023-02-19T05:16:46;101976.22;;;8.86;100.00
71976;BME280;60680;52.182;5.398;2023-02-19T05:19:13;101965.91;;;8.84;100.00
71976;BME280;60680;52.182;5.398;2023-02-19T05:21:39;101975.38;;;8.85;100.00
71976;BME280;60680;52.182;5.398;2023-02-19T05:24:06;101984.91;;;8.85;100.00
71976;BME280;60680;52.182;5.398;2023-02-19T05:26:33;101985.78;;;8.84;100.00
71976;BME280;60680;52.182;5.398;2023-02-19T05:29:01;101986.66;;;8.84;100.00
71976;BME280;60680;52.182;5.398;2023-02-19T05:31:27;101985.78;;;8.84;100.00
71976;BME280;60680;52.182;5.398;2023-02-19T05:33:55;101986.69;;;8.83;100.00
71976;BME280;60680;52.182;5.398;2023-02-19T05:36:22;101984.13;;;8.81;100.00
71976;BME280;60680;52.182;5.398;2023-02-19T05:38:53;101991.88;;;8.83;100.00
71976;BME280;60680;52.182;5.398;2023-02-19T05:41:23;101984.13;;;8.81;100.00
71976;BME280;60680;52.182;5.398;2023-02-19T05:43:50;101992.75;;;8.82;100.00
71976;BME280;60680;52.182;5.398;2023-02-19T05:46:18;101986.75;;;8.80;100.00
71976;BME280;60680;52.182;5.398;2023-02-19T05:48:47;101996.28;;;8.79;100.00
71976;BME280;60680;52.182;5.398;2023-02-19T05:51:17;101990.25;;;8.78;100.00
71976;BME280;60680;52.182;5.398;2023-02-19T05:53:44;101988.53;;;8.77;100.00
71976;BME280;60680;52.182;5.398;2023-02-19T05:56:30;101987.63;;;8.80;100.00
71976;BME280;60680;52.182;5.398;2023-02-19T05:58:58;101994.59;;;8.78;100.00
71976;BME280;60680;52.182;5.398;2023-02-19T06:01:27;102005.84;;;8.77;100.00
71976;BME280;60680;52.182;5.398;2023-02-19T06:03:54;102012.78;;;8.78;100.00
71976;BME280;60680;52.182;5.398;2023-02-19T06:06:23;102002.41;;;8.76;100.00
71976;BME280;60680;52.182;5.398;2023-02-19T06:08:50;102011.03;;;8.77;100.00
71976;BME280;60680;52.182;5.398;2023-02-19T06:11:17;102009.28;;;8.77;100.00
71976;BME280;60680;52.182;5.398;2023-02-19T06:13:45;102015.38;;;8.76;100.00
71976;BME280;60680;52.182;5.398;2023-02-19T06:16:11;102027.53;;;8.76;100.00
71976;BME280;60680;52.182;5.398;2023-02-19T06:18:38;102027.53;;;8.76;100.00
71976;BME280;60680;52.182;5.398;2023-02-19T06:21:09;102043.97;;;8.75;100.00
71976;BME280;60680;52.182;5.398;2023-02-19T06:23:38;102041.44;;;8.73;100.00
71976;BME280;60680;52.182;5.398;2023-02-19T06:26:07;102050.09;;;8.72;100.00
71976;BME280;60680;52.182;5.398;2023-02-19T06:28:35;102055.31;;;8.71;100.00
71976;BME280;60680;52.182;5.398;2023-02-19T06:31:02;102058.78;;;8.71;100.00
71976;BME280;60680;52.182;5.398;2023-02-19T06:33:29;102061.41;;;8.70;100.00
71976;BME280;60680;52.182;5.398;2023-02-19T06:36:01;102053.63;;;8.70;100.00
71976;BME280;60680;52.182;5.398;2023-02-19T06:38:28;102058.81;;;8.70;100.00
71976;BME280;60680;52.182;5.398;2023-02-19T06:40:59;102061.41;;;8.70;100.00
71976;BME280;60680;52.182;5.398;2023-02-19T06:43:26;102068.34;;;8.69;100.00
71976;BME280;60680;52.182;5.398;2023-02-19T06:45:53;102070.94;;;8.69;100.00
71976;BME280;60680;52.182;5.398;2023-02-19T06:48:20;102069.22;;;8.67;100.00
71976;BME280;60680;52.182;5.398;2023-02-19T06:50:46;102073.56;;;8.66;100.00
71976;BME280;60680;52.182;5.398;2023-02-19T06:53:13;102073.59;;;8.65;100.00
71976;BME280;60680;52.182;5.398;2023-02-19T06:55:39;102077.91;;;8.66;100.00
71976;BME280;60680;52.182;5.398;2023-02-19T06:58:06;102078.78;;;8.65;100.00
71976;BME280;60680;52.182;5.398;2023-02-19T07:00:33;102088.31;;;8.64;100.00
71976;BME280;60680;52.182;5.398;2023-02-19T07:03:00;102085.72;;;8.64;100.00
71976;BME280;60680;52.182;5.398;2023-02-19T07:05:29;102093.50;;;8.64;100.00
71976;BME280;60680;52.182;5.398;2023-02-19T07:07:56;102096.97;;;8.65;100.00
71976;BME280;60680;52.182;5.398;2023-02-19T07:10:22;102108.22;;;8.65;100.00
71976;BME280;60680;52.182;5.398;2023-02-19T07:12:49;102111.66;;;8.66;100.00
71976;BME280;60680;52.182;5.398;2023-02-19T07:15:15;102111.69;;;8.64;100.00
71976;BME280;60680;52.182;5.398;2023-02-19T07:17:42;102110.81;;;8.65;100.00
71976;BME280;60680;52.182;5.398;2023-02-19T07:20:09;102118.63;;;8.64;100.00
71976;BME280;60680;52.182;5.398;2023-02-19T07:22:35;102120.31;;;8.65;100.00
71976;BME280;60680;52.182;5.398;2023-02-19T07:25:02;102131.56;;;8.65;100.00
71976;BME280;60680;52.182;5.398;2023-02-19T07:27:28;102132.41;;;8.66;100.00
71976;BME280;60680;52.182;5.398;2023-02-19T07:29:55;102138.44;;;8.68;100.00
71976;BME280;60680;52.182;5.398;2023-02-19T07:32:21;102134.09;;;8.68;100.00
71976;BME280;60680;52.182;5.398;2023-02-19T07:34:48;102136.69;;;8.68;100.00
71976;BME280;60680;52.182;5.398;2023-02-19T07:37:14;102141.00;;;8.69;100.00
71976;BME280;60680;52.182;5.398;2023-02-19T07:39:41;102150.47;;;8.70;100.00
71976;BME280;60680;52.182;5.398;2023-02-19T07:42:07;102156.50;;;8.72;100.00
71976;BME280;60680;52.182;5.398;2023-02-19T07:44:34;102146.13;;;8.71;100.00
71976;BME280;60680;52.182;5.398;2023-02-19T07:47:00;102145.25;;;8.72;100.00
71976;BME280;60680;52.182;5.398;2023-02-19T07:49:27;102149.53;;;8.73;100.00
71976;BME280;60680;52.182;5.398;2023-02-19T07:51:54;102158.22;;;8.73;100.00
71976;BME280;60680;52.182;5.398;2023-02-19T07:54:21;102165.13;;;8.73;100.00
71976;BME280;60680;52.182;5.398;2023-02-19T07:56:47;102173.78;;;8.73;100.00
71976;BME280;60680;52.182;5.398;2023-02-19T07:59:14;102164.19;;;8.75;100.00
71976;BME280;60680;52.182;5.398;2023-02-19T08:01:41;102167.59;;;8.77;100.00
71976;BME280;60680;52.182;5.398;2023-02-19T08:04:26;102178.03;;;8.76;100.00
71976;BME280;60680;52.182;5.398;2023-02-19T08:06:53;102178.97;;;8.73;100.00
71976;BME280;60680;52.182;5.398;2023-02-19T08:09:19;102178.06;;;8.74;100.00
71976;BME280;60680;52.182;5.398;2023-02-19T08:11:46;102184.06;;;8.78;100.00
71976;BME280;60680;52.182;5.398;2023-02-19T08:14:31;102188.31;;;8.81;100.00
71976;BME280;60680;52.182;5.398;2023-02-19T08:16:58;102186.56;;;8.83;100.00
71976;BME280;60680;52.182;5.398;2023-02-19T08:19:24;102199.53;;;8.83;100.00
71976;BME280;60680;52.182;5.398;2023-02-19T08:21:51;102201.31;;;8.79;100.00
71976;BME280;60680;52.182;5.398;2023-02-19T08:24:18;102203.09;;;8.77;100.00
71976;BME280;60680;52.182;5.398;2023-02-19T08:26:45;102217.81;;;8.76;100.00
71976;BME280;60680;52.182;5.398;2023-02-19T08:29:11;102212.66;;;8.75;100.00
71976;BME280;60680;52.182;5.398;2023-02-19T08:31:38;102228.22;;;8.76;100.00
71976;BME280;60680;52.182;5.398;2023-02-19T08:34:05;102219.50;;;8.79;100.00
71976;BME280;60680;52.182;5.398;2023-02-19T08:36:31;102221.16;;;8.83;100.00
71976;BME280;60680;52.182;5.398;2023-02-19T08:38:58;102228.09;;;8.81;100.00
71976;BME280;60680;52.182;5.398;2023-02-19T08:41:25;102228.94;;;8.82;100.00
71976;BME280;60680;52.182;5.398;2023-02-19T08:43:51;102239.34;;;8.82;100.00
71976;BME280;60680;52.182;5.398;2023-02-19T08:46:18;102247.19;;;8.80;100.00
71976;BME280;60680;52.182;5.398;2023-02-19T08:48:45;102248.06;;;8.77;100.00
71976;BME280;60680;52.182;5.398;2023-02-19T08:51:11;102241.19;;;8.76;100.00
71976;BME280;60680;52.182;5.398;2023-02-19T08:53:39;102231.63;;;8.78;100.00
71976;BME280;60680;52.182;5.398;2023-02-19T08:56:12;102233.31;;;8.80;100.00
71976;BME280;60680;52.182;5.398;2023-02-19T08:58:38;102239.41;;;8.78;100.00
71976;BME280;60680;52.182;5.398;2023-02-19T09:01:10;102241.91;;;8.83;100.00
71976;BME280;60680;52.182;5.398;2023-02-19T09:03:38;102253.13;;;8.85;100.00
71976;BME280;60680;52.182;5.398;2023-02-19T09:06:05;102235.88;;;8.83;100.00
71976;BME280;60680;52.182;5.398;2023-02-19T09:08:31;102231.53;;;8.82;100.00
71976;BME280;60680;52.182;5.398;2023-02-19T09:11:03;102246.19;;;8.86;100.00
71976;BME280;60680;52.182;5.398;2023-02-19T09:13:29;102241.03;;;8.84;100.00
71976;BME280;60680;52.182;5.398;2023-02-19T09:15:56;102255.72;;;8.84;100.00
71976;BME280;60680;52.182;5.398;2023-02-19T09:18:24;102266.94;;;8.86;100.00
71976;BME280;60680;52.182;5.398;2023-02-19T09:20:51;102249.66;;;8.86;100.00
71976;BME280;60680;52.182;5.398;2023-02-19T09:23:17;102258.19;;;8.91;100.00
71976;BME280;60680;52.182;5.398;2023-02-19T09:25:44;102263.25;;;8.97;100.00
71976;BME280;60680;52.182;5.398;2023-02-19T09:28:10;102259.53;;;9.09;100.00
71976;BME280;60680;52.182;5.398;2023-02-19T09:30:37;102272.34;;;9.17;100.00
71976;BME280;60680;52.182;5.398;2023-02-19T09:33:04;102300.22;;;9.10;100.00
71976;BME280;60680;52.182;5.398;2023-02-19T09:35:31;102304.59;;;9.07;100.00
71976;BME280;60680;52.182;5.398;2023-02-19T09:37:59;102306.44;;;9.02;100.00
71976;BME280;60680;52.182;5.398;2023-02-19T09:40:28;102307.31;;;9.01;100.00
71976;BME280;60680;52.182;5.398;2023-02-19T09:42:55;102314.28;;;8.98;100.00
71976;BME280;60680;52.182;5.398;2023-02-19T09:45:24;102332.56;;;8.92;100.00
71976;BME280;60680;52.182;5.398;2023-02-19T09:47:53;102341.56;;;8.74;100.00
71976;BME280;60680;52.182;5.398;2023-02-19T09:50:28;102337.59;;;8.56;100.00
71976;BME280;60680;52.182;5.398;2023-02-19T09:53:01;102349.88;;;8.45;100.00
71976;BME280;60680;52.182;5.398;2023-02-19T09:55:38;102360.38;;;8.36;100.00
71976;BME280;60680;52.182;5.398;2023-02-19T09:58:27;102356.13;;;8.32;100.00
71976;BME280;60680;52.182;5.398;2023-02-19T10:00:59;102360.53;;;8.27;100.00
71976;BME280;60680;52.182;5.398;2023-02-19T10:03:34;102359.75;;;8.20;100.00
71976;BME280;60680;52.182;5.398;2023-02-19T10:06:09;102371.00;;;8.21;100.00
71976;BME280;60680;52.182;5.398;2023-02-19T10:08:40;102375.31;;;8.22;100.00
71976;BME280;60680;52.182;5.398;2023-02-19T10:11:10;102395.13;;;8.24;100.00
71976;BME280;60680;52.182;5.398;2023-02-19T10:16:20;102402.03;;;8.27;100.00
71976;BME280;60680;52.182;5.398;2023-02-19T10:18:49;102401.22;;;8.25;100.00
71976;BME280;60680;52.182;5.398;2023-02-19T10:21:18;102415.88;;;8.26;100.00
71976;BME280;60680;52.182;5.398;2023-02-19T10:23:50;102422.75;;;8.28;100.00
71976;BME280;60680;52.182;5.398;2023-02-19T10:26:18;102424.38;;;8.35;100.00
71976;BME280;60680;52.182;5.398;2023-02-19T10:28:45;102417.38;;;8.44;100.00
71976;BME280;60680;52.182;5.398;2023-02-19T10:31:23;102422.41;;;8.51;100.00
71976;BME280;60680;52.182;5.398;2023-02-19T10:33:55;102427.63;;;8.50;100.00
71976;BME280;60680;52.182;5.398;2023-02-19T10:39:01;102431.81;;;8.59;100.00
71976;BME280;60680;52.182;5.398;2023-02-19T10:41:29;102431.84;;;8.57;100.00
71976;BME280;60680;52.182;5.398;2023-02-19T10:46:28;102438.72;;;8.60;100.00
71976;BME280;60680;52.182;5.398;2023-02-19T10:48:59;102431.78;;;8.60;100.00
71976;BME280;60680;52.182;5.398;2023-02-19T10:51:35;102433.69;;;8.49;100.00
71976;BME280;60680;52.182;5.398;2023-02-19T10:54:15;102437.28;;;8.40;100.00
71976;BME280;60680;52.182;5.398;2023-02-19T10:56:42;102437.34;;;8.34;100.00
71976;BME280;60680;52.182;5.398;2023-02-19T11:01:59;102432.25;;;8.29;100.00
71976;BME280;60680;52.182;5.398;2023-02-19T11:04:28;102427.13;;;8.25;100.00
71976;BME280;60680;52.182;5.398;2023-02-19T11:07:10;102417.63;;;8.24;100.00
71976;BME280;60680;52.182;5.398;2023-02-19T11:09:42;102428.97;;;8.16;100.00
71976;BME280;60680;52.182;5.398;2023-02-19T11:12:13;102429.84;;;8.17;100.00
71976;BME280;60680;52.182;5.398;2023-02-19T11:14:48;102438.44;;;8.19;100.00
71976;BME280;60680;52.182;5.398;2023-02-19T11:17:26;102444.38;;;8.27;100.00
71976;BME280;60680;52.182;5.398;2023-02-19T11:20:07;102446.91;;;8.32;100.00
71976;BME280;60680;52.182;5.398;2023-02-19T11:22:40;102452.03;;;8.35;100.00
71976;BME280;60680;52.182;5.398;2023-02-19T11:32:58;102446.16;;;8.24;100.00
71976;BME280;60680;52.182;5.398;2023-02-19T11:35:38;102451.31;;;8.25;100.00
71976;BME280;60680;52.182;5.398;2023-02-19T11:38:08;102458.19;;;8.28;100.00
71976;BME280;60680;52.182;5.398;2023-02-19T11:40:53;102459.03;;;8.28;100.00
71976;BME280;60680;52.182;5.398;2023-02-19T11:48:52;102463.38;;;8.28;100.00
71976;BME280;60680;52.182;5.398;2023-02-19T11:54:48;102459.19;;;8.19;100.00
71976;BME280;60680;52.182;5.398;2023-02-19T11:57:50;102454.03;;;8.17;100.00
71976;BME280;60680;52.182;5.398;2023-02-19T12:05:42;102459.56;;;7.93;100.00
71976;BME280;60680;52.182;5.398;2023-02-19T12:08:36;102463.94;;;7.88;100.00
71976;BME280;60680;52.182;5.398;2023-02-19T12:11:19;102464.97;;;7.74;100.00
71976;BME280;60680;52.182;5.398;2023-02-19T12:13:55;102470.09;;;7.78;100.00
71976;BME280;60680;52.182;5.398;2023-02-19T12:16:28;102473.50;;;7.83;100.00
71976;BME280;60680;52.182;5.398;2023-02-19T12:19:51;102475.97;;;7.90;100.00
71976;BME280;60680;52.182;5.398;2023-02-19T12:22:30;102478.63;;;7.87;100.00
71976;BME280;60680;52.182;5.398;2023-02-19T12:38:44;102496.00;;;7.81;100.00
71976;BME280;60680;52.182;5.398;2023-02-19T12:41:29;102487.41;;;7.75;100.00
71976;BME280;60680;52.182;5.398;2023-02-19T12:44:09;102489.19;;;7.70;100.00
71976;BME280;60680;52.182;5.398;2023-02-19T12:46:43;102496.19;;;7.64;100.00
71976;BME280;60680;52.182;5.398;2023-02-19T12:49:25;102506.63;;;7.58;100.00
71976;BME280;60680;52.182;5.398;2023-02-19T12:51:59;102507.47;;;7.61;100.00
71976;BME280;60680;52.182;5.398;2023-02-19T12:54:33;102506.47;;;7.71;100.00
71976;BME280;60680;52.182;5.398;2023-02-19T12:57:13;102511.56;;;7.78;100.00
71976;BME280;60680;52.182;5.398;2023-02-19T12:59:51;102522.81;;;7.78;100.00
71976;BME280;60680;52.182;5.398;2023-02-19T13:02:23;102528.00;;;7.75;100.00
71976;BME280;60680;52.182;5.398;2023-02-19T13:08:02;102528.00;;;7.76;99.47
71976;BME280;60680;52.182;5.398;2023-02-19T13:10:39;102534.09;;;7.74;99.11
71976;BME280;60680;52.182;5.398;2023-02-19T13:13:15;102535.78;;;7.78;98.19
71976;BME280;60680;52.182;5.398;2023-02-19T13:15:48;102545.22;;;7.82;97.94
71976;BME280;60680;52.182;5.398;2023-02-19T13:18:21;102550.44;;;7.78;97.96
71976;BME280;60680;52.182;5.398;2023-02-19T13:20:49;102559.88;;;7.83;98.35
71976;BME280;60680;52.182;5.398;2023-02-19T13:23:29;102556.44;;;7.84;97.79
71976;BME280;60680;52.182;5.398;2023-02-19T13:37:25;102564.03;;;8.00;97.81
71976;BME280;60680;52.182;5.398;2023-02-19T13:39:53;102565.66;;;8.08;97.20
71976;BME280;60680;52.182;5.398;2023-02-19T13:42:26;102562.91;;;8.19;97.22
71976;BME280;60680;52.182;5.398;2023-02-19T13:44:54;102566.41;;;8.16;95.77
71976;BME280;60680;52.182;5.398;2023-02-19T13:50:28;102578.47;;;8.17;95.34
71976;BME280;60680;52.182;5.398;2023-02-19T13:53:00;102575.97;;;8.13;94.00
71976;BME280;60680;52.182;5.398;2023-02-19T14:01:08;102578.56;;;8.13;95.18
71976;BME280;60680;52.182;5.398;2023-02-19T14:06:05;102586.41;;;8.07;92.27
71976;BME280;60680;52.182;5.398;2023-02-19T14:08:57;102576.03;;;8.07;91.84
71976;BME280;60680;52.182;5.398;2023-02-19T14:19:50;102572.38;;;8.23;90.63
71976;BME280;60680;52.182;5.398;2023-02-19T14:31:31;102554.38;;;8.12;88.83
71976;BME280;60680;52.182;5.398;2023-02-19T14:34:04;102550.00;;;8.16;88.63
71976;BME280;60680;52.182;5.398;2023-02-19T14:39:34;102545.63;;;8.18;87.97
71976;BME280;60680;52.182;5.398;2023-02-19T14:42:20;102536.16;;;8.17;87.61
71976;BME280;60680;52.182;5.398;2023-02-19T14:44:59;102527.53;;;8.15;87.17
71976;BME280;60680;52.182;5.398;2023-02-19T14:47:29;102528.31;;;8.22;88.20
71976;BME280;60680;52.182;5.398;2023-02-19T14:52:41;102526.41;;;8.33;86.04
71976;BME280;60680;52.182;5.398;2023-02-19T14:55:20;102529.81;;;8.40;87.82
71976;BME280;60680;52.182;5.398;2023-02-19T14:57:51;102521.94;;;8.46;86.61
71976;BME280;60680;52.182;5.398;2023-02-19T15:02:52;102506.34;;;8.47;86.81
71976;BME280;60680;52.182;5.398;2023-02-19T15:05:26;102516.63;;;8.55;87.07
71976;BME280;60680;52.182;5.398;2023-02-19T15:07:56;102506.28;;;8.52;85.91
71976;BME280;60680;52.182;5.398;2023-02-19T15:10:25;102506.41;;;8.44;85.21
71976;BME280;60680;52.182;5.398;2023-02-19T15:12:58;102521.09;;;8.45;86.53
71976;BME280;60680;52.182;5.398;2023-02-19T15:15:28;102528.09;;;8.42;87.27
71976;BME280;60680;52.182;5.398;2023-02-19T15:17:57;102544.47;;;8.39;87.16
71976;BME280;60680;52.182;5.398;2023-02-19T15:20:27;102553.22;;;8.33;87.49
71976;BME280;60680;52.182;5.398;2023-02-19T15:22:56;102555.94;;;8.24;87.78